Rechercher aéroport 
image banner adimage banner adimage banner ad
image banner ad

KMER - Castle

Situé à Atwater, United States

ICAO - MER, IATA -

Données fournies par Airmate  

Information générale

Coordonnées: N37°22'50" W120°34'5"
Élévation : 190 feet MSL.
Variation magnétique : 15° East
Voir autres Aéroports à California

Données opérationnelles

Special qualification required
Heure actuelle UTC:
Heure actuelle locale:
Météo
METAR: KMER 020535Z AUTO 34009KT CLR 23/10 A2999 RMK AO1
TAF: KMER 020520Z 0206/0306 30006KT P6SM SKC
Voir NOTAMs / SUP AIP / TFR affectant cet aéroport [VIEW]
Fréquences de communication: [VIEW]

Pistes:

Identifiant RWYQFULongueur (ft)Largeur (ft)SurfaceLDA (ft)
13141°11802150OTHER
31321°11802150OTHER

Coordonnées de l'aéroport

Adresse: Atwater United States

Vue satellite de KMER